sensor_id;sensor_type;location;lat;lon;timestamp;temperature;humidity
42037;DHT22;30340;52.004;5.908;2022-07-17T00:02:03;16.10;59.00
42037;DHT22;30340;52.004;5.908;2022-07-17T00:04:29;16.10;59.30
42037;DHT22;30340;52.004;5.908;2022-07-17T00:06:54;16.10;59.40
42037;DHT22;30340;52.004;5.908;2022-07-17T00:09:20;16.10;59.40
42037;DHT22;30340;52.004;5.908;2022-07-17T00:11:45;16.10;59.60
42037;DHT22;30340;52.004;5.908;2022-07-17T00:14:11;16.10;59.70
42037;DHT22;30340;52.004;5.908;2022-07-17T00:16:36;16.00;59.60
42037;DHT22;30340;52.004;5.908;2022-07-17T00:19:02;16.00;59.70
42037;DHT22;30340;52.004;5.908;2022-07-17T00:21:28;16.00;59.70
42037;DHT22;30340;52.004;5.908;2022-07-17T00:23:54;16.00;59.80
42037;DHT22;30340;52.004;5.908;2022-07-17T00:26:19;16.00;60.00
42037;DHT22;30340;52.004;5.908;2022-07-17T00:28:45;16.00;59.90
42037;DHT22;30340;52.004;5.908;2022-07-17T00:31:11;16.00;59.90
42037;DHT22;30340;52.004;5.908;2022-07-17T00:33:36;16.00;59.90
42037;DHT22;30340;52.004;5.908;2022-07-17T00:36:02;16.00;60.00
42037;DHT22;30340;52.004;5.908;2022-07-17T00:38:27;16.00;60.00
42037;DHT22;30340;52.004;5.908;2022-07-17T00:40:57;15.90;60.20
42037;DHT22;30340;52.004;5.908;2022-07-17T00:43:24;15.90;60.80
42037;DHT22;30340;52.004;5.908;2022-07-17T00:46:00;15.90;60.30
42037;DHT22;30340;52.004;5.908;2022-07-17T00:48:27;16.00;60.40
42037;DHT22;30340;52.004;5.908;2022-07-17T00:50:53;16.00;60.30
42037;DHT22;30340;52.004;5.908;2022-07-17T00:53:18;15.90;60.30
42037;DHT22;30340;52.004;5.908;2022-07-17T00:55:46;15.90;60.30
42037;DHT22;30340;52.004;5.908;2022-07-17T00:58:23;15.90;60.40
42037;DHT22;30340;52.004;5.908;2022-07-17T01:00:50;15.90;60.50
42037;DHT22;30340;52.004;5.908;2022-07-17T01:03:17;15.90;60.50
42037;DHT22;30340;52.004;5.908;2022-07-17T01:05:43;15.90;60.60
42037;DHT22;30340;52.004;5.908;2022-07-17T01:08:09;15.80;60.60
42037;DHT22;30340;52.004;5.908;2022-07-17T01:10:35;15.80;60.60
42037;DHT22;30340;52.004;5.908;2022-07-17T01:13:01;15.80;60.70
42037;DHT22;30340;52.004;5.908;2022-07-17T01:15:27;15.80;60.70
42037;DHT22;30340;52.004;5.908;2022-07-17T01:17:54;15.80;60.70
42037;DHT22;30340;52.004;5.908;2022-07-17T01:20:19;15.80;60.70
42037;DHT22;30340;52.004;5.908;2022-07-17T01:22:48;15.80;60.70
42037;DHT22;30340;52.004;5.908;2022-07-17T01:25:19;15.70;60.60
42037;DHT22;30340;52.004;5.908;2022-07-17T01:27:45;15.70;60.70
42037;DHT22;30340;52.004;5.908;2022-07-17T01:30:11;15.70;60.70
42037;DHT22;30340;52.004;5.908;2022-07-17T01:32:38;15.70;60.70
42037;DHT22;30340;52.004;5.908;2022-07-17T01:35:05;15.80;60.80
42037;DHT22;30340;52.004;5.908;2022-07-17T01:37:30;15.70;60.70
42037;DHT22;30340;52.004;5.908;2022-07-17T01:39:56;15.80;60.60
42037;DHT22;30340;52.004;5.908;2022-07-17T01:42:23;15.80;60.60
42037;DHT22;30340;52.004;5.908;2022-07-17T01:44:50;15.70;60.70
42037;DHT22;30340;52.004;5.908;2022-07-17T01:47:17;15.60;60.90
42037;DHT22;30340;52.004;5.908;2022-07-17T01:49:48;15.60;61.00
42037;DHT22;30340;52.004;5.908;2022-07-17T01:52:14;15.60;61.00
42037;DHT22;30340;52.004;5.908;2022-07-17T01:54:40;15.60;60.90
42037;DHT22;30340;52.004;5.908;2022-07-17T01:57:06;15.70;60.90
42037;DHT22;30340;52.004;5.908;2022-07-17T01:59:32;15.60;60.80
42037;DHT22;30340;52.004;5.908;2022-07-17T02:01:58;15.50;61.20
42037;DHT22;30340;52.004;5.908;2022-07-17T02:04:23;15.60;61.20
42037;DHT22;30340;52.004;5.908;2022-07-17T02:06:49;15.50;61.10
42037;DHT22;30340;52.004;5.908;2022-07-17T02:09:14;15.60;61.20
42037;DHT22;30340;52.004;5.908;2022-07-17T02:11:40;15.50;61.10
42037;DHT22;30340;52.004;5.908;2022-07-17T02:14:05;15.60;61.20
42037;DHT22;30340;52.004;5.908;2022-07-17T02:16:31;15.60;61.10
42037;DHT22;30340;52.004;5.908;2022-07-17T02:18:57;15.60;61.10
42037;DHT22;30340;52.004;5.908;2022-07-17T02:21:22;15.40;61.40
42037;DHT22;30340;52.004;5.908;2022-07-17T02:23:48;15.40;61.60
42037;DHT22;30340;52.004;5.908;2022-07-17T02:26:13;15.40;61.60
42037;DHT22;30340;52.004;5.908;2022-07-17T02:28:39;15.40;61.40
42037;DHT22;30340;52.004;5.908;2022-07-17T02:31:04;15.40;61.40
42037;DHT22;30340;52.004;5.908;2022-07-17T02:33:30;15.50;61.40
42037;DHT22;30340;52.004;5.908;2022-07-17T02:35:56;15.40;61.40
42037;DHT22;30340;52.004;5.908;2022-07-17T02:38:21;15.40;61.30
42037;DHT22;30340;52.004;5.908;2022-07-17T02:40:47;15.50;61.40
42037;DHT22;30340;52.004;5.908;2022-07-17T02:43:12;15.40;61.30
42037;DHT22;30340;52.004;5.908;2022-07-17T02:45:38;15.40;61.40
42037;DHT22;30340;52.004;5.908;2022-07-17T02:48:04;15.50;61.50
42037;DHT22;30340;52.004;5.908;2022-07-17T02:50:29;15.40;61.50
42037;DHT22;30340;52.004;5.908;2022-07-17T02:52:55;15.40;61.50
42037;DHT22;30340;52.004;5.908;2022-07-17T02:55:20;15.40;61.50
42037;DHT22;30340;52.004;5.908;2022-07-17T02:57:46;15.40;61.50
42037;DHT22;30340;52.004;5.908;2022-07-17T03:00:14;15.40;61.60
42037;DHT22;30340;52.004;5.908;2022-07-17T03:02:41;15.30;61.60
42037;DHT22;30340;52.004;5.908;2022-07-17T03:05:08;15.30;61.70
42037;DHT22;30340;52.004;5.908;2022-07-17T03:07:33;15.30;61.70
42037;DHT22;30340;52.004;5.908;2022-07-17T03:09:59;15.30;61.70
42037;DHT22;30340;52.004;5.908;2022-07-17T03:12:24;15.30;61.60
42037;DHT22;30340;52.004;5.908;2022-07-17T03:14:50;15.30;61.60
42037;DHT22;30340;52.004;5.908;2022-07-17T03:17:15;15.20;61.60
42037;DHT22;30340;52.004;5.908;2022-07-17T03:19:41;15.20;61.70
42037;DHT22;30340;52.004;5.908;2022-07-17T03:22:07;15.20;61.70
42037;DHT22;30340;52.004;5.908;2022-07-17T03:24:32;15.20;61.80
42037;DHT22;30340;52.004;5.908;2022-07-17T03:26:58;15.20;61.80
42037;DHT22;30340;52.004;5.908;2022-07-17T03:29:24;15.20;61.80
42037;DHT22;30340;52.004;5.908;2022-07-17T03:31:50;15.20;61.80
42037;DHT22;30340;52.004;5.908;2022-07-17T03:34:16;15.20;61.90
42037;DHT22;30340;52.004;5.908;2022-07-17T03:36:42;15.10;62.00
42037;DHT22;30340;52.004;5.908;2022-07-17T03:39:07;15.10;62.20
42037;DHT22;30340;52.004;5.908;2022-07-17T03:41:33;15.00;62.20
42037;DHT22;30340;52.004;5.908;2022-07-17T03:43:59;15.00;62.30
42037;DHT22;30340;52.004;5.908;2022-07-17T03:46:24;14.90;62.50
42037;DHT22;30340;52.004;5.908;2022-07-17T03:48:50;14.80;62.80
42037;DHT22;30340;52.004;5.908;2022-07-17T03:51:16;14.80;63.20
42037;DHT22;30340;52.004;5.908;2022-07-17T03:53:41;14.70;63.40
42037;DHT22;30340;52.004;5.908;2022-07-17T03:56:07;14.70;63.50
42037;DHT22;30340;52.004;5.908;2022-07-17T03:58:33;14.70;63.50
42037;DHT22;30340;52.004;5.908;2022-07-17T04:00:59;14.70;64.20
42037;DHT22;30340;52.004;5.908;2022-07-17T04:03:25;14.70;63.70
42037;DHT22;30340;52.004;5.908;2022-07-17T04:05:51;14.70;63.70
42037;DHT22;30340;52.004;5.908;2022-07-17T04:08:17;14.70;64.30
42037;DHT22;30340;52.004;5.908;2022-07-17T04:10:43;14.70;63.70
42037;DHT22;30340;52.004;5.908;2022-07-17T04:13:09;14.80;63.60
42037;DHT22;30340;52.004;5.908;2022-07-17T04:15:35;14.90;63.30
42037;DHT22;30340;52.004;5.908;2022-07-17T04:18:19;15.00;63.00
42037;DHT22;30340;52.004;5.908;2022-07-17T04:20:46;15.10;62.60
42037;DHT22;30340;52.004;5.908;2022-07-17T04:23:12;15.20;62.30
42037;DHT22;30340;52.004;5.908;2022-07-17T04:25:38;15.20;62.20
42037;DHT22;30340;52.004;5.908;2022-07-17T04:28:04;15.30;62.10
42037;DHT22;30340;52.004;5.908;2022-07-17T04:30:30;15.30;62.10
42037;DHT22;30340;52.004;5.908;2022-07-17T04:32:55;15.30;62.20
42037;DHT22;30340;52.004;5.908;2022-07-17T04:35:21;15.20;62.20
42037;DHT22;30340;52.004;5.908;2022-07-17T04:37:46;15.20;62.30
42037;DHT22;30340;52.004;5.908;2022-07-17T04:40:12;15.20;62.40
42037;DHT22;30340;52.004;5.908;2022-07-17T04:42:37;15.20;62.50
42037;DHT22;30340;52.004;5.908;2022-07-17T04:45:04;15.20;62.40
42037;DHT22;30340;52.004;5.908;2022-07-17T04:47:30;15.30;62.30
42037;DHT22;30340;52.004;5.908;2022-07-17T04:49:56;15.40;62.30
42037;DHT22;30340;52.004;5.908;2022-07-17T04:52:22;15.40;62.20
42037;DHT22;30340;52.004;5.908;2022-07-17T04:54:48;15.40;62.10
42037;DHT22;30340;52.004;5.908;2022-07-17T04:57:13;15.40;62.20
42037;DHT22;30340;52.004;5.908;2022-07-17T04:59:39;15.50;62.10
42037;DHT22;30340;52.004;5.908;2022-07-17T05:02:05;15.60;62.00
42037;DHT22;30340;52.004;5.908;2022-07-17T05:04:30;15.60;61.90
42037;DHT22;30340;52.004;5.908;2022-07-17T05:06:56;15.70;61.90
42037;DHT22;30340;52.004;5.908;2022-07-17T05:09:21;15.90;61.50
42037;DHT22;30340;52.004;5.908;2022-07-17T05:11:47;15.90;61.30
42037;DHT22;30340;52.004;5.908;2022-07-17T05:14:13;15.90;61.50
42037;DHT22;30340;52.004;5.908;2022-07-17T05:16:38;15.90;61.50
42037;DHT22;30340;52.004;5.908;2022-07-17T05:19:04;16.20;61.00
42037;DHT22;30340;52.004;5.908;2022-07-17T05:21:30;16.40;60.70
42037;DHT22;30340;52.004;5.908;2022-07-17T05:23:55;17.00;59.70
42037;DHT22;30340;52.004;5.908;2022-07-17T05:26:21;17.80;58.10
42037;DHT22;30340;52.004;5.908;2022-07-17T05:28:46;18.60;56.40
42037;DHT22;30340;52.004;5.908;2022-07-17T05:31:12;19.20;54.90
42037;DHT22;30340;52.004;5.908;2022-07-17T05:33:38;19.40;53.80
42037;DHT22;30340;52.004;5.908;2022-07-17T05:36:03;19.70;53.10
42037;DHT22;30340;52.004;5.908;2022-07-17T05:38:29;20.10;52.60
42037;DHT22;30340;52.004;5.908;2022-07-17T05:40:54;20.50;51.80
42037;DHT22;30340;52.004;5.908;2022-07-17T05:43:20;20.70;51.30
42037;DHT22;30340;52.004;5.908;2022-07-17T05:45:45;20.90;50.90
42037;DHT22;30340;52.004;5.908;2022-07-17T05:48:11;20.90;50.40
42037;DHT22;30340;52.004;5.908;2022-07-17T05:50:36;21.10;50.40
42037;DHT22;30340;52.004;5.908;2022-07-17T05:53:02;21.40;49.80
42037;DHT22;30340;52.004;5.908;2022-07-17T05:55:28;21.70;49.10
42037;DHT22;30340;52.004;5.908;2022-07-17T05:57:53;21.50;48.90
42037;DHT22;30340;52.004;5.908;2022-07-17T06:00:19;21.40;48.90
42037;DHT22;30340;52.004;5.908;2022-07-17T06:02:45;21.70;49.00
42037;DHT22;30340;52.004;5.908;2022-07-17T06:05:11;22.20;48.40
42037;DHT22;30340;52.004;5.908;2022-07-17T06:07:37;22.40;47.60
42037;DHT22;30340;52.004;5.908;2022-07-17T06:10:06;22.30;47.30
42037;DHT22;30340;52.004;5.908;2022-07-17T06:12:31;22.10;47.40
42037;DHT22;30340;52.004;5.908;2022-07-17T06:14:57;21.70;48.20
42037;DHT22;30340;52.004;5.908;2022-07-17T06:17:23;22.00;47.80
42037;DHT22;30340;52.004;5.908;2022-07-17T06:19:48;22.30;47.50
42037;DHT22;30340;52.004;5.908;2022-07-17T06:22:20;22.10;47.50
42037;DHT22;30340;52.004;5.908;2022-07-17T06:24:46;22.30;47.50
42037;DHT22;30340;52.004;5.908;2022-07-17T06:27:12;22.40;47.30
42037;DHT22;30340;52.004;5.908;2022-07-17T06:29:38;22.40;47.50
42037;DHT22;30340;52.004;5.908;2022-07-17T06:32:04;22.60;47.60
42037;DHT22;30340;52.004;5.908;2022-07-17T06:34:30;22.60;47.70
42037;DHT22;30340;52.004;5.908;2022-07-17T06:36:55;22.70;47.70
42037;DHT22;30340;52.004;5.908;2022-07-17T06:39:21;22.40;48.30
42037;DHT22;30340;52.004;5.908;2022-07-17T06:41:46;22.00;48.20
42037;DHT22;30340;52.004;5.908;2022-07-17T06:44:12;21.50;49.00
42037;DHT22;30340;52.004;5.908;2022-07-17T06:46:37;21.30;49.60
42037;DHT22;30340;52.004;5.908;2022-07-17T06:49:03;21.10;49.80
42037;DHT22;30340;52.004;5.908;2022-07-17T06:51:29;21.00;50.30
42037;DHT22;30340;52.004;5.908;2022-07-17T06:53:54;21.00;50.40
42037;DHT22;30340;52.004;5.908;2022-07-17T06:56:20;21.00;50.50
42037;DHT22;30340;52.004;5.908;2022-07-17T06:58:45;21.00;50.00
42037;DHT22;30340;52.004;5.908;2022-07-17T07:01:11;21.00;50.30
42037;DHT22;30340;52.004;5.908;2022-07-17T07:03:37;21.10;49.70
42037;DHT22;30340;52.004;5.908;2022-07-17T07:06:03;21.20;49.40
42037;DHT22;30340;52.004;5.908;2022-07-17T07:08:28;21.20;49.30
42037;DHT22;30340;52.004;5.908;2022-07-17T07:10:54;21.10;49.30
42037;DHT22;30340;52.004;5.908;2022-07-17T07:13:19;21.20;49.40
42037;DHT22;30340;52.004;5.908;2022-07-17T07:15:45;21.40;49.40
42037;DHT22;30340;52.004;5.908;2022-07-17T07:18:11;21.60;49.10
42037;DHT22;30340;52.004;5.908;2022-07-17T07:20:36;21.80;48.80
42037;DHT22;30340;52.004;5.908;2022-07-17T07:23:02;21.80;49.00
42037;DHT22;30340;52.004;5.908;2022-07-17T07:25:28;21.90;48.30
42037;DHT22;30340;52.004;5.908;2022-07-17T07:27:53;21.80;48.10
42037;DHT22;30340;52.004;5.908;2022-07-17T07:30:19;21.80;48.00
42037;DHT22;30340;52.004;5.908;2022-07-17T07:32:44;21.70;48.20
42037;DHT22;30340;52.004;5.908;2022-07-17T07:35:10;21.80;48.30
42037;DHT22;30340;52.004;5.908;2022-07-17T07:37:36;22.00;48.20
42037;DHT22;30340;52.004;5.908;2022-07-17T07:40:04;22.20;47.90
42037;DHT22;30340;52.004;5.908;2022-07-17T07:42:30;22.50;47.50
42037;DHT22;30340;52.004;5.908;2022-07-17T07:44:55;22.60;46.90
42037;DHT22;30340;52.004;5.908;2022-07-17T07:47:21;22.50;46.60
42037;DHT22;30340;52.004;5.908;2022-07-17T07:49:47;22.30;46.60
42037;DHT22;30340;52.004;5.908;2022-07-17T07:52:12;22.50;46.90
42037;DHT22;30340;52.004;5.908;2022-07-17T07:54:38;22.50;46.70
42037;DHT22;30340;52.004;5.908;2022-07-17T07:57:03;22.80;46.70
42037;DHT22;30340;52.004;5.908;2022-07-17T07:59:29;22.90;46.10
42037;DHT22;30340;52.004;5.908;2022-07-17T08:01:58;22.80;46.10
42037;DHT22;30340;52.004;5.908;2022-07-17T08:04:24;22.90;46.10
42037;DHT22;30340;52.004;5.908;2022-07-17T08:06:49;23.00;46.00
42037;DHT22;30340;52.004;5.908;2022-07-17T08:09:15;23.00;46.40
42037;DHT22;30340;52.004;5.908;2022-07-17T08:11:40;23.00;45.80
42037;DHT22;30340;52.004;5.908;2022-07-17T08:14:06;23.20;45.80
42037;DHT22;30340;52.004;5.908;2022-07-17T08:16:31;23.30;45.70
42037;DHT22;30340;52.004;5.908;2022-07-17T08:18:57;23.40;45.40
42037;DHT22;30340;52.004;5.908;2022-07-17T08:21:23;23.30;44.70
42037;DHT22;30340;52.004;5.908;2022-07-17T08:23:48;23.30;44.50
42037;DHT22;30340;52.004;5.908;2022-07-17T08:26:14;23.50;44.30
42037;DHT22;30340;52.004;5.908;2022-07-17T08:28:40;23.60;43.90
42037;DHT22;30340;52.004;5.908;2022-07-17T08:31:05;23.50;43.70
42037;DHT22;30340;52.004;5.908;2022-07-17T08:33:31;23.60;43.00
42037;DHT22;30340;52.004;5.908;2022-07-17T08:35:56;23.50;43.00
42037;DHT22;30340;52.004;5.908;2022-07-17T08:38:22;23.60;42.80
42037;DHT22;30340;52.004;5.908;2022-07-17T08:40:48;23.60;42.50
42037;DHT22;30340;52.004;5.908;2022-07-17T08:43:15;23.60;42.80
42037;DHT22;30340;52.004;5.908;2022-07-17T08:45:42;23.50;42.60
42037;DHT22;30340;52.004;5.908;2022-07-17T08:48:12;23.60;42.40
42037;DHT22;30340;52.004;5.908;2022-07-17T08:50:39;23.80;42.30
42037;DHT22;30340;52.004;5.908;2022-07-17T08:53:04;24.00;42.10
42037;DHT22;30340;52.004;5.908;2022-07-17T08:55:33;24.20;41.90
42037;DHT22;30340;52.004;5.908;2022-07-17T08:57:59;24.40;41.50
42037;DHT22;30340;52.004;5.908;2022-07-17T09:00:26;24.30;41.30
42037;DHT22;30340;52.004;5.908;2022-07-17T09:03:07;24.20;41.00
42037;DHT22;30340;52.004;5.908;2022-07-17T09:05:38;23.90;41.40
42037;DHT22;30340;52.004;5.908;2022-07-17T09:08:05;23.70;41.90
42037;DHT22;30340;52.004;5.908;2022-07-17T09:13:01;23.80;42.40
42037;DHT22;30340;52.004;5.908;2022-07-17T09:15:37;24.00;42.10
42037;DHT22;30340;52.004;5.908;2022-07-17T09:18:03;24.00;41.70
42037;DHT22;30340;52.004;5.908;2022-07-17T09:20:28;23.90;41.90
42037;DHT22;30340;52.004;5.908;2022-07-17T09:23:03;24.00;42.00
42037;DHT22;30340;52.004;5.908;2022-07-17T09:25:50;24.20;41.90
42037;DHT22;30340;52.004;5.908;2022-07-17T09:28:16;24.50;41.70
42037;DHT22;30340;52.004;5.908;2022-07-17T09:30:45;24.60;41.40
42037;DHT22;30340;52.004;5.908;2022-07-17T09:33:18;24.70;41.20
42037;DHT22;30340;52.004;5.908;2022-07-17T09:35:49;24.80;40.90
42037;DHT22;30340;52.004;5.908;2022-07-17T09:38:32;24.80;40.80
42037;DHT22;30340;52.004;5.908;2022-07-17T09:46:20;24.60;40.20
42037;DHT22;30340;52.004;5.908;2022-07-17T09:48:47;24.30;40.50
42037;DHT22;30340;52.004;5.908;2022-07-17T09:51:20;24.20;41.00
42037;DHT22;30340;52.004;5.908;2022-07-17T09:53:47;24.50;41.20
42037;DHT22;30340;52.004;5.908;2022-07-17T09:56:15;24.60;40.90
42037;DHT22;30340;52.004;5.908;2022-07-17T09:58:44;24.50;40.40
42037;DHT22;30340;52.004;5.908;2022-07-17T10:01:11;24.60;40.70
42037;DHT22;30340;52.004;5.908;2022-07-17T10:03:37;24.80;40.80
42037;DHT22;30340;52.004;5.908;2022-07-17T10:06:03;25.00;40.40
42037;DHT22;30340;52.004;5.908;2022-07-17T10:08:31;24.90;40.00
42037;DHT22;30340;52.004;5.908;2022-07-17T10:10:57;25.10;40.10
42037;DHT22;30340;52.004;5.908;2022-07-17T10:13:22;25.30;39.70
42037;DHT22;30340;52.004;5.908;2022-07-17T10:15:48;25.50;39.60
42037;DHT22;30340;52.004;5.908;2022-07-17T10:18:14;25.50;39.20
42037;DHT22;30340;52.004;5.908;2022-07-17T10:20:40;25.30;38.80
42037;DHT22;30340;52.004;5.908;2022-07-17T10:23:13;25.10;39.20
42037;DHT22;30340;52.004;5.908;2022-07-17T10:25:39;25.30;39.40
42037;DHT22;30340;52.004;5.908;2022-07-17T10:28:04;25.40;39.20
42037;DHT22;30340;52.004;5.908;2022-07-17T10:30:30;25.60;39.00
42037;DHT22;30340;52.004;5.908;2022-07-17T10:32:57;25.40;38.40
42037;DHT22;30340;52.004;5.908;2022-07-17T10:35:25;25.20;38.40
42037;DHT22;30340;52.004;5.908;2022-07-17T10:37:51;25.00;39.00
42037;DHT22;30340;52.004;5.908;2022-07-17T10:47:57;25.50;39.40
42037;DHT22;30340;52.004;5.908;2022-07-17T10:50:38;25.60;39.10
42037;DHT22;30340;52.004;5.908;2022-07-17T10:53:22;25.80;39.20
42037;DHT22;30340;52.004;5.908;2022-07-17T10:55:53;26.00;38.80
42037;DHT22;30340;52.004;5.908;2022-07-17T10:58:24;26.00;38.80
42037;DHT22;30340;52.004;5.908;2022-07-17T11:01:00;26.00;38.80
42037;DHT22;30340;52.004;5.908;2022-07-17T11:03:26;26.00;38.90
42037;DHT22;30340;52.004;5.908;2022-07-17T11:05:52;26.10;38.70
42037;DHT22;30340;52.004;5.908;2022-07-17T11:08:18;26.20;38.70
42037;DHT22;30340;52.004;5.908;2022-07-17T11:10:44;26.10;38.40
42037;DHT22;30340;52.004;5.908;2022-07-17T11:13:13;25.90;38.40
42037;DHT22;30340;52.004;5.908;2022-07-17T11:15:48;26.00;38.90
42037;DHT22;30340;52.004;5.908;2022-07-17T11:18:16;25.90;38.70
42037;DHT22;30340;52.004;5.908;2022-07-17T11:21:02;25.80;39.20
42037;DHT22;30340;52.004;5.908;2022-07-17T11:23:30;26.00;39.30
42037;DHT22;30340;52.004;5.908;2022-07-17T11:26:06;26.40;39.20
42037;DHT22;30340;52.004;5.908;2022-07-17T11:28:40;26.70;39.00
42037;DHT22;30340;52.004;5.908;2022-07-17T11:31:21;26.90;38.60
42037;DHT22;30340;52.004;5.908;2022-07-17T11:36:21;27.00;38.30
42037;DHT22;30340;52.004;5.908;2022-07-17T11:38:47;26.90;38.30
42037;DHT22;30340;52.004;5.908;2022-07-17T11:41:12;26.90;38.80
42037;DHT22;30340;52.004;5.908;2022-07-17T11:43:40;27.10;38.40
42037;DHT22;30340;52.004;5.908;2022-07-17T11:46:07;27.20;38.20
42037;DHT22;30340;52.004;5.908;2022-07-17T11:48:33;27.10;38.00
42037;DHT22;30340;52.004;5.908;2022-07-17T11:50:59;27.00;37.80
42037;DHT22;30340;52.004;5.908;2022-07-17T11:53:32;26.80;38.10
42037;DHT22;30340;52.004;5.908;2022-07-17T11:55:58;26.90;38.10
42037;DHT22;30340;52.004;5.908;2022-07-17T11:58:23;26.80;38.10
42037;DHT22;30340;52.004;5.908;2022-07-17T12:01:03;27.20;38.20
42037;DHT22;30340;52.004;5.908;2022-07-17T12:03:28;27.30;37.80
42037;DHT22;30340;52.004;5.908;2022-07-17T12:05:54;27.40;37.20
42037;DHT22;30340;52.004;5.908;2022-07-17T12:08:20;27.30;37.00
42037;DHT22;30340;52.004;5.908;2022-07-17T12:10:45;27.40;37.30
42037;DHT22;30340;52.004;5.908;2022-07-17T12:13:13;27.70;37.30
42037;DHT22;30340;52.004;5.908;2022-07-17T12:15:48;28.00;36.90
42037;DHT22;30340;52.004;5.908;2022-07-17T12:18:28;28.20;36.50
42037;DHT22;30340;52.004;5.908;2022-07-17T12:21:01;28.50;36.30
42037;DHT22;30340;52.004;5.908;2022-07-17T12:23:35;28.80;35.60
42037;DHT22;30340;52.004;5.908;2022-07-17T12:26:08;28.80;35.10
42037;DHT22;30340;52.004;5.908;2022-07-17T12:28:35;28.90;35.10
42037;DHT22;30340;52.004;5.908;2022-07-17T12:31:01;28.60;34.50
42037;DHT22;30340;52.004;5.908;2022-07-17T12:33:26;28.60;35.00
42037;DHT22;30340;52.004;5.908;2022-07-17T12:35:52;28.60;35.00
42037;DHT22;30340;52.004;5.908;2022-07-17T12:38:18;28.90;35.10
42037;DHT22;30340;52.004;5.908;2022-07-17T12:40:43;28.80;34.30
42037;DHT22;30340;52.004;5.908;2022-07-17T12:43:09;28.70;33.70
42037;DHT22;30340;52.004;5.908;2022-07-17T12:45:35;28.40;34.00
42037;DHT22;30340;52.004;5.908;2022-07-17T12:48:01;28.50;33.80
42037;DHT22;30340;52.004;5.908;2022-07-17T12:50:27;28.50;33.70
42037;DHT22;30340;52.004;5.908;2022-07-17T12:52:52;28.30;33.40
42037;DHT22;30340;52.004;5.908;2022-07-17T12:55:18;28.40;33.70
42037;DHT22;30340;52.004;5.908;2022-07-17T12:57:44;28.40;33.70
42037;DHT22;30340;52.004;5.908;2022-07-17T13:00:10;28.30;33.60
42037;DHT22;30340;52.004;5.908;2022-07-17T13:02:36;28.50;33.70
42037;DHT22;30340;52.004;5.908;2022-07-17T13:05:01;28.60;33.50
42037;DHT22;30340;52.004;5.908;2022-07-17T13:07:27;28.80;33.40
42037;DHT22;30340;52.004;5.908;2022-07-17T13:09:53;29.30;33.20
42037;DHT22;30340;52.004;5.908;2022-07-17T13:12:18;29.40;32.60
42037;DHT22;30340;52.004;5.908;2022-07-17T13:14:44;29.10;31.60
42037;DHT22;30340;52.004;5.908;2022-07-17T13:17:10;28.90;31.80
42037;DHT22;30340;52.004;5.908;2022-07-17T13:19:35;28.80;31.50
42037;DHT22;30340;52.004;5.908;2022-07-17T13:22:03;28.70;31.90
42037;DHT22;30340;52.004;5.908;2022-07-17T13:24:30;28.70;31.50
42037;DHT22;30340;52.004;5.908;2022-07-17T13:26:55;28.40;31.50
42037;DHT22;30340;52.004;5.908;2022-07-17T13:29:21;28.40;31.90
42037;DHT22;30340;52.004;5.908;2022-07-17T13:31:46;28.50;32.00
42037;DHT22;30340;52.004;5.908;2022-07-17T13:34:12;28.70;31.70
42037;DHT22;30340;52.004;5.908;2022-07-17T13:36:38;28.60;31.50
42037;DHT22;30340;52.004;5.908;2022-07-17T13:39:04;28.90;31.80
42037;DHT22;30340;52.004;5.908;2022-07-17T13:41:30;29.20;31.60
42037;DHT22;30340;52.004;5.908;2022-07-17T13:43:56;29.30;31.40
42037;DHT22;30340;52.004;5.908;2022-07-17T13:46:22;29.30;31.20
42037;DHT22;30340;52.004;5.908;2022-07-17T13:48:47;29.40;31.80
42037;DHT22;30340;52.004;5.908;2022-07-17T13:51:14;29.20;30.70
42037;DHT22;30340;52.004;5.908;2022-07-17T13:53:40;29.30;31.10
42037;DHT22;30340;52.004;5.908;2022-07-17T13:56:06;29.40;31.00
42037;DHT22;30340;52.004;5.908;2022-07-17T13:58:32;29.50;30.80
42037;DHT22;30340;52.004;5.908;2022-07-17T14:00:59;29.10;30.70
42037;DHT22;30340;52.004;5.908;2022-07-17T14:03:24;28.80;31.30
42037;DHT22;30340;52.004;5.908;2022-07-17T14:05:50;29.20;31.50
42037;DHT22;30340;52.004;5.908;2022-07-17T14:08:16;29.30;31.30
42037;DHT22;30340;52.004;5.908;2022-07-17T14:10:41;29.60;31.20
42037;DHT22;30340;52.004;5.908;2022-07-17T14:13:07;29.40;31.00
42037;DHT22;30340;52.004;5.908;2022-07-17T14:15:32;29.40;31.20
42037;DHT22;30340;52.004;5.908;2022-07-17T14:17:58;29.70;31.00
42037;DHT22;30340;52.004;5.908;2022-07-17T14:20:23;29.60;30.80
42037;DHT22;30340;52.004;5.908;2022-07-17T14:22:49;29.50;30.60
42037;DHT22;30340;52.004;5.908;2022-07-17T14:25:15;29.60;30.90
42037;DHT22;30340;52.004;5.908;2022-07-17T14:27:40;29.50;30.30
42037;DHT22;30340;52.004;5.908;2022-07-17T14:30:06;29.50;30.70
42037;DHT22;30340;52.004;5.908;2022-07-17T14:32:32;29.50;30.80
42037;DHT22;30340;52.004;5.908;2022-07-17T14:34:57;29.40;30.80
42037;DHT22;30340;52.004;5.908;2022-07-17T14:37:23;29.50;30.90
42037;DHT22;30340;52.004;5.908;2022-07-17T14:39:49;29.60;30.10
42037;DHT22;30340;52.004;5.908;2022-07-17T14:42:15;29.60;30.30
42037;DHT22;30340;52.004;5.908;2022-07-17T14:44:40;29.70;30.50
42037;DHT22;30340;52.004;5.908;2022-07-17T14:47:06;29.50;30.30
42037;DHT22;30340;52.004;5.908;2022-07-17T14:49:33;29.50;30.60
42037;DHT22;30340;52.004;5.908;2022-07-17T14:51:58;29.60;30.50
42037;DHT22;30340;52.004;5.908;2022-07-17T14:54:24;29.80;30.40
42037;DHT22;30340;52.004;5.908;2022-07-17T14:56:50;30.10;30.40
42037;DHT22;30340;52.004;5.908;2022-07-17T14:59:15;30.30;29.60
42037;DHT22;30340;52.004;5.908;2022-07-17T15:01:41;30.40;29.50
42037;DHT22;30340;52.004;5.908;2022-07-17T15:04:06;30.50;29.30
42037;DHT22;30340;52.004;5.908;2022-07-17T15:06:32;30.50;28.70
42037;DHT22;30340;52.004;5.908;2022-07-17T15:08:58;30.40;29.10
42037;DHT22;30340;52.004;5.908;2022-07-17T15:11:23;30.60;29.20
42037;DHT22;30340;52.004;5.908;2022-07-17T15:13:49;30.70;29.20
42037;DHT22;30340;52.004;5.908;2022-07-17T15:16:14;30.80;29.00
42037;DHT22;30340;52.004;5.908;2022-07-17T15:18:40;30.90;28.90
42037;DHT22;30340;52.004;5.908;2022-07-17T15:21:06;30.70;28.50
42037;DHT22;30340;52.004;5.908;2022-07-17T15:23:32;30.30;28.00
42037;DHT22;30340;52.004;5.908;2022-07-17T15:25:57;30.10;28.50
42037;DHT22;30340;52.004;5.908;2022-07-17T15:28:23;30.00;28.20
42037;DHT22;30340;52.004;5.908;2022-07-17T15:30:48;30.00;28.40
42037;DHT22;30340;52.004;5.908;2022-07-17T15:33:14;30.00;28.60
42037;DHT22;30340;52.004;5.908;2022-07-17T15:35:40;29.80;28.00
42037;DHT22;30340;52.004;5.908;2022-07-17T15:38:05;29.70;28.40
42037;DHT22;30340;52.004;5.908;2022-07-17T15:40:31;29.70;28.50
42037;DHT22;30340;52.004;5.908;2022-07-17T15:42:56;29.40;28.30
42037;DHT22;30340;52.004;5.908;2022-07-17T15:45:22;29.30;28.00